createdAt,value
2022-09-05T00:02:49.151Z,3.30
2022-09-05T00:05:44.227Z,3.60
2022-09-05T00:08:25.378Z,3.23
2022-09-05T00:11:40.588Z,2.70
2022-09-05T00:13:51.301Z,3.10
2022-09-05T00:16:46.996Z,3.10
2022-09-05T00:23:58.745Z,2.63
2022-09-05T00:24:26.438Z,2.77
2022-09-05T00:25:38.570Z,3.03
2022-09-05T00:28:26.538Z,2.70
2022-09-05T00:31:53.485Z,3.23
2022-09-05T00:34:16.784Z,3.37
2022-09-05T00:36:46.371Z,3.70
2022-09-05T00:39:17.849Z,3.20
2022-09-05T00:41:46.152Z,3.40
2022-09-05T00:44:13.979Z,3.30
2022-09-05T00:46:44.019Z,3.67
2022-09-05T00:49:20.808Z,3.23
2022-09-05T00:51:52.290Z,3.30
2022-09-05T00:54:49.268Z,4.23
2022-09-05T00:57:45.320Z,3.77
2022-09-05T01:00:18.286Z,3.23
2022-09-05T01:03:13.128Z,3.50
2022-09-05T01:05:50.425Z,3.23
2022-09-05T01:08:24.646Z,3.40
2022-09-05T01:10:55.036Z,3.10
2022-09-05T01:13:29.042Z,3.00
2022-09-05T01:16:00.874Z,3.30
2022-09-05T01:18:36.002Z,3.13
2022-09-05T01:21:31.344Z,3.40
2022-09-05T01:24:34.051Z,3.10
2022-09-05T01:27:53.081Z,3.77
2022-09-05T01:30:23.980Z,3.20
2022-09-05T01:33:06.106Z,3.20
2022-09-05T01:35:53.501Z,3.67
2022-09-05T01:38:35.614Z,2.90
2022-09-05T01:41:19.160Z,2.97
2022-09-05T01:44:09.035Z,3.50
2022-09-05T01:46:40.457Z,3.57
2022-09-05T01:49:14.515Z,3.13
2022-09-05T01:52:02.032Z,3.10
2022-09-05T01:54:34.697Z,3.30
2022-09-05T01:57:04.756Z,3.00
2022-09-05T01:59:45.302Z,3.00
2022-09-05T02:02:19.905Z,3.07
2022-09-05T02:04:59.864Z,3.13
2022-09-05T02:07:34.354Z,3.13
2022-09-05T02:10:31.428Z,3.20
2022-09-05T02:13:03.511Z,3.10
2022-09-05T02:15:40.825Z,3.20
2022-09-05T02:18:12.605Z,3.30
2022-09-05T02:20:46.145Z,3.10
2022-09-05T02:23:41.144Z,3.20
2022-09-05T02:26:13.399Z,3.30
2022-09-05T02:28:45.120Z,3.10
2022-09-05T02:31:20.120Z,3.13
2022-09-05T02:33:49.695Z,3.07
2022-09-05T02:36:23.457Z,2.90
2022-09-05T02:45:01.439Z,3.03
2022-09-05T02:45:11.157Z,3.33
2022-09-05T02:45:16.411Z,5.60
2022-09-05T02:47:28.976Z,6.20
2022-09-05T02:52:34.269Z,3.97
2022-09-05T02:57:25.317Z,4.20
2022-09-05T02:57:34.569Z,4.00
2022-09-05T02:59:08.604Z,3.87
2022-09-05T03:01:50.620Z,3.43
2022-09-05T03:04:27.074Z,3.53
2022-09-05T03:07:02.803Z,3.70
2022-09-05T03:09:37.728Z,3.37
2022-09-05T03:12:28.596Z,3.30
2022-09-05T03:15:25.529Z,3.60
2022-09-05T03:18:21.019Z,3.50
2022-09-05T03:21:13.233Z,5.57
2022-09-05T03:24:06.929Z,8.53
2022-09-05T03:26:58.291Z,5.17
2022-09-05T03:29:50.061Z,4.50
2022-09-05T03:32:45.382Z,4.27
2022-09-05T03:36:08.731Z,4.50
2022-09-05T03:39:16.262Z,4.23
2022-09-05T03:42:17.013Z,4.30
2022-09-05T03:44:54.584Z,3.83
2022-09-05T03:47:38.683Z,4.33
2022-09-05T03:55:59.947Z,4.00
2022-09-05T03:57:14.836Z,3.73
2022-09-05T03:57:18.177Z,3.80
2022-09-05T03:59:50.509Z,3.67
2022-09-05T04:08:08.220Z,3.60
2022-09-05T04:08:14.028Z,3.80
2022-09-05T04:08:15.655Z,4.13
2022-09-05T04:10:54.135Z,4.07
2022-09-05T04:13:25.731Z,3.70
2022-09-05T04:16:02.960Z,4.20
2022-09-05T04:18:35.297Z,3.70
2022-09-05T04:21:04.843Z,3.60
2022-09-05T04:23:35.381Z,3.53
2022-09-05T04:26:11.763Z,3.33
2022-09-05T04:28:55.922Z,3.63
2022-09-05T04:31:29.984Z,3.70
2022-09-05T04:34:03.811Z,4.13
2022-09-05T04:36:33.104Z,4.37
2022-09-05T04:39:08.204Z,4.33
2022-09-05T04:41:40.208Z,4.90
2022-09-05T04:44:10.919Z,5.27
2022-09-05T04:46:48.893Z,4.80
2022-09-05T04:49:18.085Z,4.63
2022-09-05T04:52:11.282Z,5.10
2022-09-05T04:54:43.392Z,5.70
2022-09-05T04:57:18.285Z,5.10
2022-09-05T05:03:22.082Z,5.53
2022-09-05T05:06:15.299Z,5.20
2022-09-05T05:06:17.548Z,6.67
2022-09-05T05:08:38.117Z,6.80
2022-09-05T05:16:06.294Z,7.07
2022-09-05T05:17:55.651Z,7.10
2022-09-05T05:18:13.757Z,6.70
2022-09-05T05:19:40.634Z,6.33
2022-09-05T05:22:14.825Z,7.57
2022-09-05T05:24:44.208Z,6.80
2022-09-05T05:27:13.288Z,6.70
2022-09-05T05:29:45.251Z,7.10
2022-09-05T05:32:33.220Z,7.20
2022-09-05T05:35:09.552Z,8.50
2022-09-05T05:37:38.031Z,8.03
2022-09-05T05:40:08.603Z,8.17
2022-09-05T05:42:36.643Z,8.00
2022-09-05T05:45:04.891Z,7.30
2022-09-05T05:47:36.261Z,6.57
2022-09-05T05:50:11.625Z,7.53
2022-09-05T05:52:50.984Z,7.93
2022-09-05T05:55:52.261Z,7.07
2022-09-05T05:58:46.730Z,7.53
2022-09-05T06:01:38.749Z,7.60
2022-09-05T06:04:45.322Z,6.73
2022-09-05T06:07:19.504Z,6.90
2022-09-05T06:14:48.846Z,6.90
2022-09-05T06:15:01.463Z,6.33
2022-09-05T06:16:49.770Z,6.03
2022-09-05T06:21:58.273Z,6.00
2022-09-05T06:22:54.856Z,7.50
2022-09-05T06:25:55.045Z,6.00
2022-09-05T06:28:26.714Z,6.80
2022-09-05T06:31:30.696Z,7.70
2022-09-05T06:33:57.375Z,6.60
2022-09-05T06:36:33.568Z,7.27
2022-09-05T06:39:11.051Z,5.97
2022-09-05T06:41:44.716Z,8.40
2022-09-05T06:44:37.113Z,6.70
2022-09-05T06:47:24.131Z,7.50
2022-09-05T06:50:27.103Z,7.20
2022-09-05T06:53:32.543Z,7.50
2022-09-05T06:56:11.571Z,6.70
2022-09-05T06:59:09.638Z,9.00
2022-09-05T07:02:00.170Z,10.17
2022-09-05T07:05:23.529Z,9.10
2022-09-05T07:07:27.650Z,9.20
2022-09-05T07:10:00.557Z,8.10
2022-09-05T07:12:31.283Z,7.47
2022-09-05T07:15:08.826Z,7.10
2022-09-05T07:18:09.578Z,6.83
2022-09-05T07:21:15.748Z,6.40
2022-09-05T07:24:02.328Z,5.90
2022-09-05T07:26:54.677Z,5.80
2022-09-05T07:29:19.312Z,5.10
2022-09-05T07:31:51.732Z,5.10
2022-09-05T07:34:22.466Z,4.97
2022-09-05T07:37:14.615Z,4.93
2022-09-05T07:39:46.203Z,5.23
2022-09-05T07:42:16.227Z,5.07
2022-09-05T07:44:47.452Z,4.57
2022-09-05T07:47:18.731Z,5.20
2022-09-05T07:50:05.092Z,4.60
2022-09-05T07:56:56.185Z,4.63
2022-09-05T07:57:01.708Z,4.63
2022-09-05T07:58:14.715Z,4.80
2022-09-05T08:00:44.028Z,3.73
2022-09-05T08:03:12.878Z,4.00
2022-09-05T08:05:43.283Z,4.27
2022-09-05T08:08:12.257Z,4.23
2022-09-05T08:11:23.227Z,4.00
2022-09-05T08:13:47.071Z,4.47
2022-09-05T08:16:17.905Z,3.90
2022-09-05T08:18:49.984Z,4.20
2022-09-05T08:21:27.444Z,4.37
2022-09-05T08:23:58.085Z,3.83
2022-09-05T08:26:31.946Z,3.23
2022-09-05T08:29:02.950Z,4.27
2022-09-05T08:31:36.183Z,4.07
2022-09-05T08:34:12.779Z,4.30
2022-09-05T08:36:41.849Z,4.03
2022-09-05T08:39:10.353Z,4.23
2022-09-05T08:41:56.117Z,3.80
2022-09-05T08:46:42.113Z,3.70
2022-09-05T08:47:27.285Z,3.70
2022-09-05T08:50:26.701Z,4.00
2022-09-05T08:52:59.141Z,4.00
2022-09-05T08:55:35.195Z,4.30
2022-09-05T08:58:07.296Z,4.03
2022-09-05T09:00:38.089Z,4.00
2022-09-05T09:03:13.376Z,4.43
2022-09-05T09:06:17.205Z,3.80
2022-09-05T09:09:05.261Z,4.20
2022-09-05T09:11:36.925Z,4.10
2022-09-05T09:14:36.584Z,3.60
2022-09-05T09:17:08.634Z,3.90
2022-09-05T09:19:47.126Z,3.73
2022-09-05T09:22:19.881Z,4.07
2022-09-05T09:25:15.678Z,3.67
2022-09-05T09:28:17.688Z,3.97
2022-09-05T09:30:33.120Z,3.83
2022-09-05T09:33:04.345Z,3.63
2022-09-05T09:35:39.417Z,3.83
2022-09-05T09:38:14.358Z,3.47
2022-09-05T09:41:04.825Z,3.63
2022-09-05T09:43:38.884Z,3.60
2022-09-05T09:46:17.900Z,4.33
2022-09-05T09:49:02.726Z,3.90
2022-09-05T09:51:49.769Z,3.80
2022-09-05T09:54:38.104Z,4.40
2022-09-05T09:57:36.195Z,3.83
2022-09-05T10:00:08.109Z,4.20
2022-09-05T10:08:38.029Z,4.20
2022-09-05T10:10:38.088Z,3.80
2022-09-05T10:10:44.655Z,4.07
2022-09-05T10:12:17.121Z,3.60
2022-09-05T10:15:06.564Z,3.77
2022-09-05T10:18:26.328Z,4.20
2022-09-05T10:21:16.663Z,3.53
2022-09-05T10:24:27.069Z,4.07
2022-09-05T10:27:05.405Z,3.67
2022-09-05T10:29:46.809Z,4.00
2022-09-05T10:35:10.063Z,4.20
2022-09-05T10:35:21.257Z,3.57
2022-09-05T10:37:52.825Z,4.03
2022-09-05T10:40:23.053Z,4.10
2022-09-05T10:43:00.685Z,3.63
2022-09-05T10:45:38.651Z,3.40
2022-09-05T10:48:13.682Z,3.67
2022-09-05T10:50:43.975Z,3.47
2022-09-05T10:53:22.941Z,3.80
2022-09-05T10:56:00.361Z,3.70
2022-09-05T11:00:50.735Z,3.53
2022-09-05T11:02:31.052Z,3.87
2022-09-05T11:04:37.160Z,3.70
2022-09-05T11:07:19.426Z,3.73
2022-09-05T11:10:03.152Z,3.80
2022-09-05T11:12:39.146Z,3.47
2022-09-05T11:15:07.805Z,3.60
2022-09-05T11:17:40.147Z,3.37
2022-09-05T11:20:35.905Z,3.70
2022-09-05T11:23:05.963Z,4.07
2022-09-05T11:25:40.541Z,3.30
2022-09-05T11:28:14.786Z,3.47
2022-09-05T11:30:43.764Z,3.23
2022-09-05T11:39:48.086Z,3.50
2022-09-05T11:39:54.098Z,3.20
2022-09-05T11:39:56.071Z,3.77
2022-09-05T11:42:37.527Z,3.40
2022-09-05T11:45:34.627Z,3.60
2022-09-05T11:48:24.135Z,3.17
2022-09-05T11:51:33.958Z,3.00
2022-09-05T11:54:41.959Z,3.50
2022-09-05T11:57:33.384Z,3.30
2022-09-05T12:00:33.144Z,3.30
2022-09-05T12:03:56.935Z,3.00
2022-09-05T12:06:37.606Z,3.17
2022-09-05T12:09:23.645Z,3.57
2022-09-05T12:11:58.147Z,3.30
2022-09-05T12:14:35.635Z,3.13
2022-09-05T12:17:10.108Z,3.03
2022-09-05T12:19:47.260Z,3.07
2022-09-05T12:22:26.334Z,2.90
2022-09-05T12:25:25.146Z,3.20
2022-09-05T12:29:28.087Z,2.70
2022-09-05T12:31:58.834Z,2.93
2022-09-05T12:36:06.439Z,2.77
2022-09-05T12:40:54.834Z,2.90
2022-09-05T12:40:58.371Z,2.80
2022-09-05T12:42:25.724Z,2.60
2022-09-05T12:45:09.615Z,2.90
2022-09-05T12:47:59.308Z,2.57
2022-09-05T12:50:34.664Z,2.67
2022-09-05T12:53:09.067Z,2.67
2022-09-05T12:55:38.928Z,3.03
2022-09-05T13:02:26.452Z,2.77
2022-09-05T13:03:06.577Z,2.90
2022-09-05T13:04:20.019Z,2.90
2022-09-05T13:06:55.622Z,2.63
2022-09-05T13:09:27.746Z,2.17
2022-09-05T13:14:53.086Z,2.43
2022-09-05T13:15:20.017Z,2.70
2022-09-05T13:17:54.536Z,2.87
2022-09-05T13:20:34.354Z,3.03
2022-09-05T13:23:07.326Z,2.63
2022-09-05T13:25:37.182Z,2.70
2022-09-05T13:28:06.648Z,2.73
2022-09-05T13:33:49.133Z,2.73
2022-09-05T13:37:58.255Z,3.30
2022-09-05T13:38:06.613Z,2.80
2022-09-05T13:39:09.910Z,2.80
2022-09-05T13:41:43.171Z,2.83
2022-09-05T13:44:25.112Z,3.67
2022-09-05T13:46:58.879Z,3.10
2022-09-05T13:49:31.602Z,2.90
2022-09-05T13:52:08.111Z,2.93
2022-09-05T13:54:44.776Z,3.00
2022-09-05T13:57:32.165Z,2.97
2022-09-05T14:00:28.044Z,2.40
2022-09-05T14:03:39.477Z,2.97
2022-09-05T14:06:46.644Z,2.53
2022-09-05T14:12:03.312Z,3.00
2022-09-05T14:17:51.515Z,3.10
2022-09-05T14:20:37.507Z,2.90
2022-09-05T14:23:07.749Z,3.13
2022-09-05T14:25:38.892Z,2.70
2022-09-05T14:28:12.887Z,3.30
2022-09-05T14:33:19.143Z,3.10
2022-09-05T14:37:51.910Z,2.60
2022-09-05T14:37:54.822Z,2.53
2022-09-05T14:39:44.986Z,2.70
2022-09-05T14:42:24.035Z,2.60
2022-09-05T14:45:22.925Z,3.13
2022-09-05T14:48:14.143Z,3.10
2022-09-05T14:51:01.802Z,2.80
2022-09-05T14:57:23.653Z,2.80
2022-09-05T15:02:40.881Z,3.07
2022-09-05T15:02:41.537Z,3.10
2022-09-05T15:05:11.759Z,3.57
2022-09-05T15:07:41.112Z,3.07
2022-09-05T15:12:14.601Z,2.90
2022-09-05T15:13:16.966Z,3.57
2022-09-05T15:15:49.884Z,3.70
2022-09-05T15:18:32.320Z,3.30
2022-09-05T15:21:33.137Z,3.43
2022-09-05T15:24:04.759Z,3.30
2022-09-05T15:26:51.969Z,3.50
2022-09-05T15:29:22.936Z,4.10
2022-09-05T15:31:54.577Z,3.70
2022-09-05T15:34:38.856Z,3.77
2022-09-05T15:37:28.057Z,3.53
2022-09-05T15:40:22.923Z,3.30
2022-09-05T15:42:52.854Z,4.00
2022-09-05T15:45:24.507Z,3.80
2022-09-05T15:48:06.509Z,3.90
2022-09-05T15:50:42.048Z,4.23
2022-09-05T15:53:11.564Z,4.10
2022-09-05T15:55:46.295Z,3.90
2022-09-05T15:58:18.699Z,3.80
2022-09-05T16:00:51.495Z,3.80
2022-09-05T16:03:58.167Z,3.70
2022-09-05T16:10:37.775Z,3.50
2022-09-05T16:10:47.082Z,3.87
2022-09-05T16:15:13.231Z,4.53
2022-09-05T16:23:13.748Z,4.37
2022-09-05T16:23:25.481Z,5.17
2022-09-05T16:23:42.023Z,4.17
2022-09-05T16:26:11.951Z,4.37
2022-09-05T16:28:42.259Z,3.87
2022-09-05T16:31:20.760Z,3.73
2022-09-05T16:33:48.881Z,4.80
2022-09-05T16:36:29.868Z,3.47
2022-09-05T16:39:00.896Z,3.80
2022-09-05T16:41:35.768Z,3.47
2022-09-05T16:44:05.473Z,4.00
2022-09-05T16:46:36.104Z,4.10
2022-09-05T16:49:12.200Z,4.47
2022-09-05T16:51:43.058Z,3.70
2022-09-05T16:54:14.322Z,4.13
2022-09-05T16:56:43.442Z,3.70
2022-09-05T16:59:13.471Z,3.90
2022-09-05T17:02:05.669Z,3.73
2022-09-05T17:05:04.570Z,3.77
2022-09-05T17:07:47.292Z,4.13
2022-09-05T17:10:19.242Z,4.10
2022-09-05T17:12:47.424Z,3.53
2022-09-05T17:15:16.604Z,3.70
2022-09-05T17:18:21.493Z,4.70
2022-09-05T17:20:48.309Z,4.00
2022-09-05T17:29:20.232Z,4.40
2022-09-05T17:29:25.564Z,6.23
2022-09-05T17:29:32.594Z,4.70
2022-09-05T17:32:00.138Z,3.90
2022-09-05T17:34:50.812Z,4.73
2022-09-05T17:37:46.243Z,4.37
2022-09-05T17:40:42.810Z,4.30
2022-09-05T17:43:18.657Z,4.03
2022-09-05T17:46:01.035Z,4.80
2022-09-05T17:49:18.411Z,4.30
2022-09-05T17:52:22.179Z,4.13
2022-09-05T17:54:52.419Z,4.20
2022-09-05T17:57:37.794Z,4.00
2022-09-05T18:00:47.367Z,4.38
2022-09-05T18:04:16.611Z,4.87
2022-09-05T18:06:59.384Z,4.65
2022-09-05T18:13:14.354Z,4.40
2022-09-05T18:16:11.913Z,4.40
2022-09-05T18:19:33.395Z,4.10
2022-09-05T18:21:49.744Z,4.43
2022-09-05T18:24:33.195Z,4.83
2022-09-05T18:27:29.771Z,4.60
2022-09-05T18:29:58.550Z,4.43
2022-09-05T18:32:45.617Z,4.33
2022-09-05T18:35:36.753Z,4.20
2022-09-05T18:38:26.128Z,6.20
2022-09-05T18:41:11.262Z,4.03
2022-09-05T18:44:12.559Z,4.50
2022-09-05T18:46:44.295Z,4.50
2022-09-05T18:50:24.078Z,4.70
2022-09-05T18:52:05.649Z,4.37
2022-09-05T18:54:36.072Z,4.13
2022-09-05T18:57:26.602Z,4.40
2022-09-05T18:59:58.071Z,5.63
2022-09-05T19:02:49.892Z,4.07
2022-09-05T19:05:28.800Z,4.70
2022-09-05T19:07:59.417Z,4.10
2022-09-05T19:10:35.592Z,4.43
2022-09-05T19:13:14.960Z,4.90
2022-09-05T19:15:48.097Z,4.43
2022-09-05T19:18:26.151Z,4.10
2022-09-05T19:21:18.007Z,4.37
2022-09-05T19:23:50.866Z,4.10
2022-09-05T19:26:18.905Z,4.33
2022-09-05T19:36:51.931Z,4.20
2022-09-05T19:36:57.562Z,4.00
2022-09-05T19:37:03.611Z,4.20
2022-09-05T19:37:29.162Z,4.43
2022-09-05T19:45:55.843Z,4.63
2022-09-05T19:47:27.504Z,4.70
2022-09-05T19:47:40.607Z,4.93
2022-09-05T19:48:34.597Z,4.27
2022-09-05T19:51:16.911Z,5.40
2022-09-05T19:53:46.918Z,6.43
2022-09-05T19:56:14.768Z,4.50
2022-09-05T19:58:42.676Z,5.47
2022-09-05T20:01:15.511Z,5.30
2022-09-05T20:03:44.427Z,6.03
2022-09-05T20:06:29.152Z,14.10
2022-09-05T20:09:14.484Z,7.90
2022-09-05T20:11:46.785Z,5.20
2022-09-05T20:14:22.882Z,4.93
2022-09-05T20:16:54.076Z,6.83
2022-09-05T20:19:35.380Z,5.70
2022-09-05T20:22:14.364Z,5.47
2022-09-05T20:24:53.517Z,4.33
2022-09-05T20:27:27.153Z,4.40
2022-09-05T20:29:56.482Z,4.13
2022-09-05T20:32:38.993Z,4.30
2022-09-05T20:38:32.948Z,5.07
2022-09-05T20:43:10.183Z,5.03
2022-09-05T20:43:17.496Z,4.60
2022-09-05T20:43:53.550Z,5.10
2022-09-05T20:49:38.136Z,5.30
2022-09-05T20:54:05.315Z,4.90
2022-09-05T20:54:28.947Z,5.70
2022-09-05T20:55:38.433Z,4.80
2022-09-05T20:57:48.481Z,5.40
2022-09-05T21:00:17.784Z,5.40
2022-09-05T21:02:54.722Z,4.80
2022-09-05T21:05:29.874Z,4.80
2022-09-05T21:08:23.304Z,5.13
2022-09-05T21:10:55.797Z,5.23
2022-09-05T21:13:26.075Z,5.70
2022-09-05T21:15:54.711Z,5.10
2022-09-05T21:18:31.435Z,5.47
2022-09-05T21:21:10.330Z,5.57
2022-09-05T21:24:08.933Z,5.60
2022-09-05T21:26:47.155Z,4.93
2022-09-05T21:29:16.361Z,4.90
2022-09-05T21:31:45.019Z,6.20
2022-09-05T21:34:17.334Z,4.70
2022-09-05T21:36:48.583Z,4.90
2022-09-05T21:39:29.965Z,4.13
2022-09-05T21:42:03.487Z,4.10
2022-09-05T21:47:43.654Z,4.20
2022-09-05T21:47:52.339Z,4.23
2022-09-05T21:50:31.222Z,4.10
2022-09-05T21:53:15.895Z,3.70
2022-09-05T21:59:20.006Z,4.00
2022-09-05T21:59:26.994Z,3.80
2022-09-05T22:01:51.580Z,4.17
2022-09-05T22:04:13.176Z,4.13
2022-09-05T22:06:40.971Z,4.10
2022-09-05T22:09:13.799Z,3.90
2022-09-05T22:11:42.177Z,3.47
2022-09-05T22:14:10.170Z,3.70
2022-09-05T22:16:44.737Z,3.90
2022-09-05T22:19:17.833Z,3.30
2022-09-05T22:21:45.852Z,3.27
2022-09-05T22:24:15.566Z,3.53
2022-09-05T22:27:06.279Z,3.97
2022-09-05T22:29:34.570Z,3.60
2022-09-05T22:32:02.344Z,4.20
2022-09-05T22:34:30.256Z,4.07
2022-09-05T22:36:58.224Z,3.77
2022-09-05T22:39:37.753Z,4.43
2022-09-05T22:42:10.142Z,4.40
2022-09-05T22:44:39.181Z,6.10
2022-09-05T22:47:07.525Z,5.80
2022-09-05T22:49:36.496Z,7.20
2022-09-05T22:52:05.424Z,6.40
2022-09-05T22:54:34.746Z,5.83
2022-09-05T22:57:02.931Z,6.30
2022-09-05T22:59:30.860Z,6.07
2022-09-05T23:01:58.797Z,7.47
2022-09-05T23:04:26.977Z,6.07
2022-09-05T23:06:55.067Z,5.77
2022-09-05T23:09:23.052Z,5.10
2022-09-05T23:11:52.389Z,5.43
2022-09-05T23:14:20.422Z,6.10
2022-09-05T23:16:48.360Z,7.27
2022-09-05T23:19:16.334Z,5.30
2022-09-05T23:21:44.310Z,5.13
2022-09-05T23:24:12.216Z,4.57
2022-09-05T23:26:39.971Z,4.37
2022-09-05T23:29:09.097Z,4.90
2022-09-05T23:31:37.051Z,6.83
2022-09-05T23:34:05.039Z,7.17
2022-09-05T23:36:33.147Z,6.90
2022-09-05T23:39:01.064Z,6.27
2022-09-05T23:41:29.048Z,5.77
2022-09-05T23:43:57.078Z,5.10
2022-09-05T23:46:26.550Z,4.90
2022-09-05T23:48:54.668Z,5.70
2022-09-05T23:51:22.682Z,5.90
2022-09-05T23:53:50.741Z,5.80
2022-09-05T23:56:18.758Z,5.87
2022-09-05T23:58:46.697Z,5.17
